Time;durP1;ratioP1;P1;durP2;ratioP2;P2;SDS_P1;SDS_P2;PMS_P1;PMS_P2;Temp;Humidity;BMP_temperature;BMP_pressure;BME280_temperature;BME280_humidity;BME280_pressure;Samples;Min_cycle;Max_cycle;Signal;HPM_P1;HPM_P2
2021/04/19 00:00:36;;;;;;;24.25;19.20;;;8.80;99.90;;;;;;5096215;28;20020;-73
2021/04/19 00:03:02;;;;;;;28.15;20.48;;;8.80;99.90;;;;;;5096177;28;20027;-73
2021/04/19 00:05:27;;;;;;;26.83;21.13;;;8.80;99.90;;;;;;5096140;28;20423;-73
2021/04/19 00:07:53;;;;;;;27.80;21.70;;;8.80;99.90;;;;;;5095814;28;20545;-73
2021/04/19 00:10:21;;;;;;;30.60;21.65;;;8.80;99.90;;;;;;5096059;28;20032;-73
2021/04/19 00:12:47;;;;;;;28.85;21.17;;;8.90;99.90;;;;;;5095307;28;20033;-73
2021/04/19 00:15:15;;;;;;;29.17;21.73;;;8.90;99.90;;;;;;5095681;28;20020;-73
2021/04/19 00:17:41;;;;;;;33.00;23.98;;;8.90;99.90;;;;;;5095901;28;20077;-73
2021/04/19 00:20:07;;;;;;;32.85;23.98;;;8.90;99.90;;;;;;5095825;28;20031;-73
2021/04/19 00:22:34;;;;;;;32.05;23.42;;;9.00;99.90;;;;;;5095224;28;20119;-73
2021/04/19 00:25:00;;;;;;;34.60;24.05;;;9.10;99.90;;;;;;5095830;28;20037;-73
2021/04/19 00:27:25;;;;;;;31.55;24.58;;;9.00;99.90;;;;;;5095595;28;20032;-73
2021/04/19 00:29:51;;;;;;;35.30;26.52;;;9.00;99.90;;;;;;5095574;28;20051;-73
2021/04/19 00:32:17;;;;;;;34.13;27.02;;;9.10;99.90;;;;;;5095423;28;20032;-73
2021/04/19 00:34:42;;;;;;;39.00;27.88;;;9.10;99.90;;;;;;5077182;28;20020;-74
2021/04/19 00:37:08;;;;;;;44.40;31.17;;;9.10;99.90;;;;;;5095732;28;20513;-73
2021/04/19 00:39:33;;;;;;;41.83;31.08;;;9.10;99.90;;;;;;5095708;28;20485;-73
2021/04/19 00:41:59;;;;;;;41.15;28.33;;;9.10;99.90;;;;;;5076914;28;20404;-73
2021/04/19 00:44:25;;;;;;;42.67;30.30;;;9.10;99.90;;;;;;5095575;28;20032;-73
2021/04/19 00:46:51;;;;;;;40.95;30.92;;;9.00;99.90;;;;;;5095528;28;20051;-73
2021/04/19 00:49:17;;;;;;;41.33;29.55;;;9.00;99.90;;;;;;5095441;28;20441;-73
2021/04/19 00:51:42;;;;;;;44.10;30.98;;;8.90;99.90;;;;;;5095420;28;20028;-73
2021/04/19 00:54:09;;;;;;;46.85;32.25;;;8.90;99.90;;;;;;5095240;28;20031;-73
2021/04/19 00:56:35;;;;;;;48.30;33.25;;;8.90;99.90;;;;;;5095312;28;20511;-73
2021/04/19 00:59:01;;;;;;;52.22;35.67;;;8.80;99.90;;;;;;5095268;28;20035;-73
2021/04/19 01:01:30;;;;;;;47.95;35.28;;;8.80;99.90;;;;;;5095166;28;20461;-73
2021/04/19 01:03:57;;;;;;;48.08;35.30;;;8.80;99.90;;;;;;5094894;28;20480;-73
2021/04/19 01:06:22;;;;;;;53.97;35.20;;;8.90;99.90;;;;;;5095135;28;20020;-73
2021/04/19 01:08:48;;;;;;;53.67;37.50;;;8.90;99.90;;;;;;5095107;28;20024;-73
2021/04/19 01:11:13;;;;;;;59.25;38.30;;;8.90;99.90;;;;;;5095055;28;20028;-73
2021/04/19 01:13:39;;;;;;;55.92;38.40;;;8.90;99.90;;;;;;5094258;28;20040;-73
2021/04/19 01:16:05;;;;;;;58.08;39.38;;;8.90;99.90;;;;;;5076828;28;20373;-73
2021/04/19 01:18:30;;;;;;;60.55;40.67;;;8.90;99.90;;;;;;5094682;28;20030;-73
2021/04/19 01:20:56;;;;;;;56.92;38.83;;;8.90;99.90;;;;;;5094588;28;20090;-73
2021/04/19 01:23:22;;;;;;;59.60;39.13;;;8.90;99.90;;;;;;5076164;28;20024;-73
2021/04/19 01:25:48;;;;;;;59.00;39.58;;;8.90;99.90;;;;;;5094794;28;20051;-72
2021/04/19 01:28:14;;;;;;;64.22;40.58;;;8.90;99.90;;;;;;5094496;28;20416;-73
2021/04/19 01:30:43;;;;;;;62.13;40.65;;;8.90;99.90;;;;;;5094742;28;20466;-73
2021/04/19 01:33:09;;;;;;;61.50;40.65;;;9.00;99.90;;;;;;5094359;28;20116;-73
2021/04/19 01:35:35;;;;;;;64.32;41.53;;;9.00;99.90;;;;;;5076384;28;20450;-73
2021/04/19 01:38:02;;;;;;;65.18;42.63;;;9.00;99.90;;;;;;5094340;28;20108;-73
2021/04/19 01:40:28;;;;;;;60.58;41.35;;;8.90;99.90;;;;;;5094316;28;20047;-73
2021/04/19 01:42:54;;;;;;;61.97;41.63;;;9.00;99.90;;;;;;5093884;28;20054;-73
2021/04/19 01:45:20;;;;;;;67.88;42.63;;;9.00;99.90;;;;;;5094238;28;20036;-73
2021/04/19 01:47:46;;;;;;;61.42;40.78;;;9.00;99.90;;;;;;5094443;28;20080;-72
2021/04/19 01:50:15;;;;;;;64.13;41.65;;;9.10;99.90;;;;;;5094183;28;20039;-72
2021/04/19 01:52:41;;;;;;;65.07;42.28;;;9.10;99.90;;;;;;5094040;28;20017;-73
2021/04/19 01:55:10;;;;;;;65.72;42.78;;;9.00;99.90;;;;;;5094389;28;20035;-73
2021/04/19 01:57:38;;;;;;;65.40;42.88;;;9.10;99.90;;;;;;5094042;28;20066;-73
2021/04/19 02:00:07;;;;;;;63.75;41.58;;;9.00;99.90;;;;;;5093757;28;20020;-73
2021/04/19 02:02:56;;;;;;;69.65;43.83;;;9.10;99.90;;;;;;5093997;28;20020;-73
2021/04/19 02:05:40;;;;;;;67.18;43.08;;;9.00;99.90;;;;;;5094243;28;20389;-73
2021/04/19 02:08:29;;;;;;;71.00;45.22;;;9.00;99.90;;;;;;5094246;28;20161;-73
2021/04/19 02:11:25;;;;;;;67.55;43.85;;;9.00;99.90;;;;;;5094088;28;20035;-73
2021/04/19 02:13:59;;;;;;;70.35;45.08;;;9.10;99.90;;;;;;5093420;28;20127;-73
2021/04/19 02:16:38;;;;;;;74.70;45.50;;;9.00;99.90;;;;;;5093847;28;20024;-73
2021/04/19 02:19:18;;;;;;;74.30;44.45;;;9.00;99.90;;;;;;5094091;28;20017;-73
2021/04/19 02:21:48;;;;;;;69.43;45.63;;;9.10;99.90;;;;;;5093816;28;20019;-73
2021/04/19 02:24:19;;;;;;;70.38;45.67;;;9.10;99.90;;;;;;5094093;28;20481;-73
2021/04/19 02:26:51;;;;;;;68.75;44.75;;;9.10;99.90;;;;;;5059183;28;20431;-73
2021/04/19 02:29:40;;;;;;;70.22;44.67;;;9.10;99.90;;;;;;5093974;28;20020;-73
2021/04/19 02:32:13;;;;;;;73.82;46.70;;;9.10;99.90;;;;;;5093113;28;20103;-73
2021/04/19 02:34:40;;;;;;;79.78;46.70;;;9.10;99.90;;;;;;5093953;28;20408;-73
2021/04/19 02:37:07;;;;;;;76.55;47.83;;;9.00;99.90;;;;;;5093915;28;20016;-73
2021/04/19 02:39:37;;;;;;;76.50;45.53;;;9.00;99.90;;;;;;5093620;28;20419;-73
2021/04/19 02:42:03;;;;;;;77.90;47.53;;;9.00;99.90;;;;;;5092851;28;20481;-73
2021/04/19 02:44:30;;;;;;;77.75;48.22;;;9.00;99.90;;;;;;5076041;28;20077;-73
2021/04/19 02:46:56;;;;;;;79.90;47.72;;;8.90;99.90;;;;;;5093836;28;20062;-73
2021/04/19 02:49:25;;;;;;;75.07;46.67;;;9.00;99.90;;;;;;5093751;28;20017;-73
2021/04/19 02:51:52;;;;;;;74.68;46.65;;;9.00;99.90;;;;;;5093535;28;20433;-73
2021/04/19 02:54:21;;;;;;;76.80;46.80;;;9.00;99.90;;;;;;5093080;28;20024;-72
2021/04/19 02:56:48;;;;;;;71.88;46.95;;;9.00;99.90;;;;;;5097679;28;20024;-73
2021/04/19 02:59:17;;;;;;;74.78;45.70;;;9.00;99.90;;;;;;5097666;28;20023;-73
2021/04/19 03:01:45;;;;;;;72.82;46.30;;;9.00;99.90;;;;;;5097597;28;20013;-73
2021/04/19 03:04:17;;;;;;;74.95;47.00;;;8.90;99.90;;;;;;5097271;28;20114;-72
2021/04/19 03:06:47;;;;;;;79.28;47.28;;;9.00;99.90;;;;;;5078865;28;20035;-73
2021/04/19 03:09:16;;;;;;;73.35;44.75;;;9.00;99.90;;;;;;5097430;28;20118;-73
2021/04/19 03:11:54;;;;;;;68.32;44.35;;;8.90;99.90;;;;;;5097144;28;20103;-73
2021/04/19 03:14:24;;;;;;;76.22;45.35;;;9.00;99.90;;;;;;5096719;28;20066;-73
2021/04/19 03:16:59;;;;;;;72.47;44.28;;;8.90;99.90;;;;;;5078813;28;20024;-73
2021/04/19 03:19:28;;;;;;;71.72;44.17;;;8.90;99.90;;;;;;5097215;28;20020;-73
2021/04/19 03:21:54;;;;;;;75.47;44.33;;;8.90;99.90;;;;;;5078531;28;20020;-73
2021/04/19 03:24:20;;;;;;;68.55;42.67;;;8.90;99.90;;;;;;5096902;28;20028;-73
2021/04/19 03:26:47;;;;;;;71.47;42.95;;;8.90;99.90;;;;;;5096832;28;20020;-72
2021/04/19 03:29:13;;;;;;;72.05;43.47;;;8.90;99.90;;;;;;5097052;28;20454;-72
2021/04/19 03:31:44;;;;;;;64.70;42.45;;;8.90;99.90;;;;;;5096469;28;20032;-72
2021/04/19 03:34:15;;;;;;;70.63;43.03;;;9.00;99.90;;;;;;5096935;28;20445;-72
2021/04/19 03:36:42;;;;;;;64.13;41.15;;;8.90;99.90;;;;;;5096932;28;20042;-72
2021/04/19 03:39:09;;;;;;;68.15;43.30;;;8.90;99.90;;;;;;5096602;28;20077;-71
2021/04/19 03:41:40;;;;;;;73.13;43.45;;;9.00;99.90;;;;;;5078458;28;20020;-72
2021/04/19 03:44:08;;;;;;;66.53;40.88;;;8.90;99.90;;;;;;5096776;28;20032;-72
2021/04/19 03:46:37;;;;;;;66.38;40.42;;;8.90;99.90;;;;;;5096496;28;20016;-72
2021/04/19 03:49:07;;;;;;;68.95;42.03;;;8.90;99.90;;;;;;5096704;28;20024;-72
2021/04/19 03:51:34;;;;;;;67.50;40.78;;;8.90;99.90;;;;;;5096638;28;20024;-72
2021/04/19 03:54:01;;;;;;;69.32;41.42;;;8.90;99.90;;;;;;5096257;28;20028;-72
2021/04/19 03:56:29;;;;;;;69.68;41.55;;;8.90;99.90;;;;;;5096558;28;20051;-71
2021/04/19 03:58:58;;;;;;;69.70;42.05;;;8.90;99.90;;;;;;5096564;28;20099;-74
2021/04/19 04:01:25;;;;;;;74.32;44.08;;;8.90;99.90;;;;;;5096194;28;20016;-71
2021/04/19 04:03:51;;;;;;;73.75;45.35;;;8.90;99.90;;;;;;5096441;28;20023;-71
2021/04/19 04:06:17;;;;;;;74.43;45.53;;;8.80;99.90;;;;;;5077744;28;20028;-71
2021/04/19 04:08:44;;;;;;;77.07;46.17;;;8.80;99.90;;;;;;5095756;28;20103;-71
2021/04/19 04:11:11;;;;;;;76.18;45.80;;;8.80;99.90;;;;;;5096305;28;20016;-73
2021/04/19 04:13:36;;;;;;;78.20;44.35;;;8.70;99.90;;;;;;5095503;28;20393;-73
2021/04/19 04:16:02;;;;;;;80.40;46.00;;;8.70;99.90;;;;;;5095640;28;20024;-73
2021/04/19 04:18:28;;;;;;;75.53;43.58;;;8.70;99.90;;;;;;5061566;28;20047;-73
2021/04/19 04:20:54;;;;;;;81.97;45.38;;;8.70;99.90;;;;;;5096810;28;20024;-73
2021/04/19 04:23:20;;;;;;;79.78;43.78;;;8.60;99.90;;;;;;5082455;28;20487;-73
2021/04/19 04:25:46;;;;;;;73.57;42.65;;;8.60;99.90;;;;;;5095727;28;20063;-73
2021/04/19 04:28:12;;;;;;;77.65;43.03;;;8.70;99.90;;;;;;5095923;28;20036;-73
2021/04/19 04:30:50;;;;;;;75.85;42.55;;;8.70;99.90;;;;;;5095891;28;20108;-73
2021/04/19 04:33:15;;;;;;;76.25;41.65;;;8.60;99.90;;;;;;5095769;28;20043;-73
2021/04/19 04:35:41;;;;;;;74.75;42.72;;;8.60;99.90;;;;;;5095771;28;20374;-73
2021/04/19 04:38:07;;;;;;;74.00;41.28;;;8.70;99.90;;;;;;5095189;28;20052;-73
2021/04/19 04:40:33;;;;;;;70.15;39.53;;;8.70;99.90;;;;;;5095450;28;20044;-73
2021/04/19 04:43:07;;;;;;;64.32;38.67;;;8.70;99.90;;;;;;5095596;28;20090;-73
2021/04/19 04:45:34;;;;;;;69.95;39.92;;;8.70;99.90;;;;;;5095654;28;20093;-73
2021/04/19 04:48:14;;;;;;;64.78;39.10;;;8.70;99.90;;;;;;5077561;28;20028;-73
2021/04/19 04:51:03;;;;;;;66.35;36.92;;;8.70;99.90;;;;;;5095836;28;20042;-73
2021/04/19 04:53:35;;;;;;;66.85;38.83;;;8.70;99.90;;;;;;5094794;28;20069;-73
2021/04/19 04:56:03;;;;;;;61.78;37.67;;;8.70;99.90;;;;;;5094874;28;20378;-73
2021/04/19 04:58:30;;;;;;;66.05;38.00;;;8.70;99.90;;;;;;5095315;28;20016;-73
2021/04/19 05:00:57;;;;;;;62.92;39.03;;;8.70;99.90;;;;;;5095289;28;20016;-73
2021/04/19 05:03:25;;;;;;;63.05;37.90;;;8.70;99.90;;;;;;5094684;28;20024;-73
2021/04/19 05:05:52;;;;;;;64.55;38.45;;;8.80;99.90;;;;;;5094898;28;20024;-73
2021/04/19 05:08:18;;;;;;;60.85;35.70;;;8.80;99.90;;;;;;5095153;28;20031;-73
2021/04/19 05:10:44;;;;;;;65.57;38.17;;;8.80;99.90;;;;;;5094561;28;20032;-73
2021/04/19 05:13:14;;;;;;;62.35;36.47;;;8.80;99.90;;;;;;5094425;28;20401;-73
2021/04/19 05:15:45;;;;;;;61.45;36.97;;;8.90;99.90;;;;;;5094723;28;20476;-73
2021/04/19 05:18:15;;;;;;;65.60;37.63;;;8.90;99.90;;;;;;5093992;28;20476;-73
2021/04/19 05:20:41;;;;;;;63.67;37.28;;;8.90;99.90;;;;;;5094670;28;20027;-73
2021/04/19 05:23:07;;;;;;;66.15;38.03;;;8.80;99.90;;;;;;5076906;28;20028;-73
2021/04/19 05:25:33;;;;;;;58.42;35.85;;;8.90;99.90;;;;;;5094842;28;20054;-73
2021/04/19 05:28:00;;;;;;;67.47;38.72;;;8.90;99.90;;;;;;5076462;28;20020;-73
2021/04/19 05:30:28;;;;;;;61.75;38.50;;;8.90;99.90;;;;;;5094412;28;20108;-73
2021/04/19 05:32:54;;;;;;;60.63;36.65;;;9.00;99.90;;;;;;5094374;28;20020;-73
2021/04/19 05:35:20;;;;;;;58.55;35.97;;;9.00;99.90;;;;;;5094125;28;20461;-73
2021/04/19 05:37:47;;;;;;;59.58;36.42;;;9.10;99.90;;;;;;5076280;28;20469;-73
2021/04/19 05:40:13;;;;;;;58.50;35.17;;;9.20;99.90;;;;;;5094586;28;20024;-73
2021/04/19 05:42:39;;;;;;;53.65;34.63;;;9.20;99.90;;;;;;5094579;28;20055;-73
2021/04/19 05:45:07;;;;;;;56.15;35.08;;;9.20;99.90;;;;;;5075820;28;20032;-73
2021/04/19 05:47:33;;;;;;;56.80;35.08;;;9.30;99.90;;;;;;5094484;28;20114;-73
2021/04/19 05:49:59;;;;;;;54.25;33.60;;;9.30;99.90;;;;;;5094117;28;20129;-73
2021/04/19 05:52:25;;;;;;;54.60;32.75;;;9.40;99.90;;;;;;5094006;28;20027;-73
2021/04/19 05:54:51;;;;;;;53.10;33.78;;;9.60;99.90;;;;;;5092978;28;20027;-73
2021/04/19 05:57:56;;;;;;;50.08;31.50;;;9.70;99.90;;;;;;5093030;28;20025;-73
2021/04/19 06:00:32;;;;;;;50.00;31.65;;;9.70;99.90;;;;;;5074741;28;20024;-73
2021/04/19 06:03:29;;;;;;;50.28;31.17;;;9.80;99.90;;;;;;5092970;28;20056;-73
2021/04/19 06:06:10;;;;;;;45.53;29.30;;;9.90;99.90;;;;;;5093785;28;20452;-73
2021/04/19 06:08:59;;;;;;;45.83;30.25;;;10.10;99.90;;;;;;5093722;28;20020;-73
2021/04/19 06:11:50;;;;;;;43.88;29.65;;;10.20;99.90;;;;;;5092054;28;20032;-73
2021/04/19 06:14:20;;;;;;;40.75;27.73;;;10.50;99.90;;;;;;5083252;28;20036;-74
2021/04/19 06:16:46;;;;;;;41.22;25.98;;;10.80;99.90;;;;;;5084701;28;20477;-73
2021/04/19 06:19:16;;;;;;;38.33;26.65;;;10.90;99.90;;;;;;5080127;28;20021;-74
2021/04/19 06:21:43;;;;;;;36.92;25.23;;;11.00;99.90;;;;;;5088429;28;20099;-73
2021/04/19 06:24:09;;;;;;;33.70;23.42;;;10.70;99.90;;;;;;5070653;28;20024;-73
2021/04/19 06:26:36;;;;;;;36.72;25.33;;;10.60;99.90;;;;;;5075565;28;20035;-73
2021/04/19 06:29:04;;;;;;;38.95;25.45;;;10.50;99.90;;;;;;5094905;28;20048;-73
2021/04/19 06:31:32;;;;;;;38.38;26.05;;;10.60;99.90;;;;;;5096965;28;20020;-73
2021/04/19 06:34:06;;;;;;;38.38;26.25;;;10.60;99.90;;;;;;5091648;28;20439;-73
2021/04/19 06:36:36;;;;;;;32.38;23.05;;;10.80;99.90;;;;;;5078067;28;20016;-74
2021/04/19 06:39:04;;;;;;;31.10;22.23;;;11.70;99.90;;;;;;5094975;28;20080;-73
2021/04/19 06:41:30;;;;;;;26.33;20.38;;;12.70;99.90;;;;;;5086834;28;20028;-73
2021/04/19 06:43:57;;;;;;;24.98;19.38;;;14.00;99.90;;;;;;5060697;28;20033;-72
2021/04/19 06:46:28;;;;;;;25.70;18.10;;;15.40;99.90;;;;;;5089179;28;20039;-72
2021/04/19 06:48:54;;;;;;;23.73;18.35;;;16.10;99.90;;;;;;5096954;28;20031;-72
2021/04/19 06:51:20;;;;;;;24.23;18.52;;;16.70;99.90;;;;;;5093020;28;20024;-72
2021/04/19 06:53:46;;;;;;;20.77;18.02;;;16.90;99.90;;;;;;5095987;28;20477;-72
2021/04/19 06:56:13;;;;;;;19.98;17.52;;;16.90;99.90;;;;;;5097213;28;20451;-72
2021/04/19 06:58:41;;;;;;;23.10;18.27;;;16.40;99.90;;;;;;5094987;28;20047;-72
2021/04/19 07:01:07;;;;;;;23.00;18.02;;;16.10;99.90;;;;;;5089454;28;20037;-72
2021/04/19 07:03:34;;;;;;;23.23;18.13;;;15.80;99.90;;;;;;5078417;28;20458;-72
2021/04/19 07:06:01;;;;;;;22.33;17.77;;;16.00;99.90;;;;;;5076986;28;20024;-72
2021/04/19 07:08:33;;;;;;;21.48;17.75;;;16.50;99.90;;;;;;5095947;28;20030;-73
2021/04/19 07:11:03;;;;;;;21.70;17.30;;;17.20;99.90;;;;;;5078393;28;20370;-73
2021/04/19 07:13:31;;;;;;;24.13;18.90;;;16.20;99.90;;;;;;5090678;28;20036;-75
2021/04/19 07:15:57;;;;;;;22.88;19.05;;;15.20;99.90;;;;;;5076879;28;20024;-73
2021/04/19 07:18:23;;;;;;;21.88;18.42;;;14.80;99.90;;;;;;5080219;28;20091;-74
2021/04/19 07:20:48;;;;;;;25.50;19.65;;;15.80;99.90;;;;;;5074711;28;20103;-74
2021/04/19 07:23:15;;;;;;;23.88;18.58;;;15.90;99.90;;;;;;5069027;28;20155;-74
2021/04/19 07:25:43;;;;;;;24.73;19.60;;;14.90;99.90;;;;;;5096221;28;20017;-74
2021/04/19 07:28:09;;;;;;;24.58;19.60;;;14.00;99.90;;;;;;5076853;28;20028;-74
2021/04/19 07:30:34;;;;;;;25.23;19.92;;;13.50;99.90;;;;;;5078419;28;20032;-74
2021/04/19 07:33:00;;;;;;;29.27;20.50;;;13.30;99.90;;;;;;5075142;28;20469;-72
2021/04/19 07:35:31;;;;;;;31.20;22.30;;;12.80;99.90;;;;;;5075910;28;20477;-74
2021/04/19 07:37:59;;;;;;;35.55;24.55;;;12.70;99.90;;;;;;5076974;28;20039;-74
2021/04/19 07:40:31;;;;;;;33.67;22.05;;;12.70;99.90;;;;;;5086454;28;20032;-74
2021/04/19 07:43:20;;;;;;;34.60;22.52;;;12.50;99.90;;;;;;5077123;28;20381;-73
2021/04/19 07:46:08;;;;;;;31.70;21.88;;;12.20;99.90;;;;;;5071832;28;20412;-74
2021/04/19 07:48:37;;;;;;;34.90;24.30;;;11.90;99.90;;;;;;5077748;28;20045;-74
2021/04/19 07:51:38;;;;;;;36.70;25.88;;;11.50;99.90;;;;;;5095095;28;20485;-74
2021/04/19 07:54:19;;;;;;;40.85;25.65;;;11.20;99.90;;;;;;5059249;28;20075;-74
2021/04/19 07:57:05;;;;;;;32.50;22.92;;;11.40;99.90;;;;;;5060154;28;20039;-74
2021/04/19 07:59:32;;;;;;;33.60;24.02;;;11.60;99.90;;;;;;5059433;28;20066;-73
2021/04/19 08:02:09;;;;;;;39.50;24.55;;;11.60;99.90;;;;;;5088176;28;20469;-73
2021/04/19 08:04:46;;;;;;;33.78;22.17;;;11.70;99.90;;;;;;5076509;28;20247;-74
2021/04/19 08:07:28;;;;;;;29.67;21.58;;;12.40;99.90;;;;;;5095011;28;20020;-74
2021/04/19 08:12:34;;;;;;;31.23;20.75;;;13.30;99.90;;;;;;5079955;28;20368;-74
2021/04/19 08:15:02;;;;;;;30.92;20.27;;;15.00;99.90;;;;;;5070122;28;20032;-74
2021/04/19 08:17:29;;;;;;;24.67;18.70;;;15.40;99.90;;;;;;5070155;28;20032;-75
2021/04/19 08:19:56;;;;;;;24.42;19.02;;;15.90;99.90;;;;;;5068935;28;20107;-75
2021/04/19 08:22:27;;;;;;;19.58;14.32;;;16.50;99.90;;;;;;5070009;28;20041;-74
2021/04/19 08:25:12;;;;;;;20.00;15.80;;;16.40;99.90;;;;;;5069304;28;20028;-74
2021/04/19 08:27:41;;;;;;;19.95;16.20;;;16.80;99.90;;;;;;5070422;28;20027;-75
2021/04/19 08:30:09;;;;;;;20.88;16.08;;;16.90;99.90;;;;;;5069284;28;20095;-74
2021/04/19 08:32:35;;;;;;;22.02;16.58;;;17.20;99.90;;;;;;5069764;28;20025;-75
2021/04/19 08:35:01;;;;;;;21.40;16.00;;;16.80;99.90;;;;;;5051613;28;20100;-74
2021/04/19 08:37:28;;;;;;;22.83;16.75;;;16.70;99.90;;;;;;5069056;28;20155;-74
2021/04/19 08:39:56;;;;;;;20.45;15.20;;;16.50;99.90;;;;;;5068726;28;20032;-75
2021/04/19 08:42:22;;;;;;;20.30;15.63;;;16.10;99.90;;;;;;5069755;28;20051;-74
2021/04/19 08:44:51;;;;;;;21.05;16.05;;;15.80;99.90;;;;;;5069156;28;20128;-74
2021/04/19 08:47:19;;;;;;;20.20;16.30;;;15.60;99.90;;;;;;5069355;28;20367;-75
2021/04/19 08:49:45;;;;;;;23.48;16.20;;;15.10;99.90;;;;;;5069583;28;20130;-74
2021/04/19 08:52:14;;;;;;;21.10;15.93;;;14.70;99.90;;;;;;5069220;28;20021;-75
2021/04/19 08:54:39;;;;;;;20.33;15.13;;;14.90;99.90;;;;;;5069320;28;20474;-74
2021/04/19 08:57:05;;;;;;;19.73;15.23;;;15.20;99.90;;;;;;5069187;28;20025;-74
2021/04/19 08:59:31;;;;;;;22.63;15.05;;;16.60;99.90;;;;;;5066796;28;20039;-75
2021/04/19 09:01:57;;;;;;;16.58;14.07;;;17.70;99.90;;;;;;5067624;28;20078;-73
2021/04/19 09:04:23;;;;;;;16.75;12.75;;;17.60;99.90;;;;;;5068937;28;20037;-75
2021/04/19 09:06:51;;;;;;;15.18;12.65;;;17.10;99.90;;;;;;5063575;28;20082;-75
2021/04/19 09:14:50;;;;;;;29.02;14.52;;;15.80;99.90;;;;;;5102133;27;20372;-73
2021/04/19 09:17:26;;;;;;;17.77;13.68;;;15.20;99.90;;;;;;5102145;28;20059;-73
2021/04/19 09:19:57;;;;;;;17.90;13.60;;;15.70;99.90;;;;;;5088387;28;20023;-73
2021/04/19 09:22:23;;;;;;;18.67;13.10;;;16.20;99.90;;;;;;5089271;28;20461;-73
2021/04/19 09:25:07;;;;;;;16.77;13.65;;;16.20;99.90;;;;;;5090134;28;20032;-73
2021/04/19 09:27:53;;;;;;;19.38;14.13;;;15.30;99.90;;;;;;5089674;28;20027;-74
2021/04/19 09:30:26;;;;;;;16.52;13.52;;;14.70;99.90;;;;;;5079083;28;20024;-73
2021/04/19 09:35:52;;;;;;;19.65;16.00;;;14.10;99.90;;;;;;5086491;28;21150;-73
2021/04/19 09:38:41;;;;;;;18.60;14.85;;;14.10;99.90;;;;;;5069779;28;20021;-75
2021/04/19 09:41:10;;;;;;;16.83;13.27;;;14.30;99.90;;;;;;5069871;28;20390;-73
2021/04/19 09:43:39;;;;;;;16.23;13.35;;;14.80;99.90;;;;;;5070030;28;20043;-73
2021/04/19 09:46:09;;;;;;;20.02;15.93;;;16.00;99.90;;;;;;5069495;28;20025;-75
2021/04/19 09:48:39;;;;;;;20.85;16.08;;;15.90;99.90;;;;;;5070073;28;20508;-75
2021/04/19 09:51:29;;;;;;;24.98;17.33;;;15.80;99.90;;;;;;5082260;28;20160;-75
2021/04/19 09:54:05;;;;;;;21.92;17.83;;;14.50;99.90;;;;;;5057235;28;20064;-74
2021/04/19 09:56:41;;;;;;;24.63;18.23;;;13.70;99.90;;;;;;5068231;28;20021;-75
2021/04/19 09:59:08;;;;;;;20.38;16.10;;;13.10;99.90;;;;;;5069949;28;20484;-73
2021/04/19 10:01:36;;;;;;;22.02;16.70;;;13.30;99.90;;;;;;5052041;28;20090;-73
2021/04/19 10:04:02;;;;;;;25.23;16.92;;;13.10;99.90;;;;;;5069393;28;20370;-75
2021/04/19 10:06:32;;;;;;;22.52;16.23;;;13.00;99.90;;;;;;5067211;28;20054;-73
2021/04/19 10:09:01;;;;;;;23.42;17.75;;;13.20;99.90;;;;;;5069025;28;20428;-73
2021/04/19 10:11:30;;;;;;;25.42;18.20;;;13.00;99.90;;;;;;5068903;28;20029;-74
2021/04/19 10:13:56;;;;;;;25.92;19.42;;;13.00;99.90;;;;;;5083901;28;20406;-75
2021/04/19 10:16:23;;;;;;;27.27;21.23;;;13.10;99.90;;;;;;5068850;28;20028;-75
2021/04/19 10:18:52;;;;;;;31.10;21.70;;;13.80;99.90;;;;;;5069570;28;20020;-75
2021/04/19 10:21:28;;;;;;;25.08;19.50;;;14.20;99.90;;;;;;5052453;28;20024;-74
2021/04/19 10:23:54;;;;;;;27.08;19.80;;;13.70;99.90;;;;;;5068334;28;20024;-75
2021/04/19 10:26:39;;;;;;;28.08;16.77;;;13.50;99.90;;;;;;5051533;28;20440;-75
2021/04/19 10:29:15;;;;;;;24.00;18.20;;;13.40;99.90;;;;;;5068323;28;20110;-75
2021/04/19 10:31:50;;;;;;;29.45;19.92;;;13.40;99.90;;;;;;5067926;28;20020;-74
2021/04/19 10:34:16;;;;;;;28.70;19.20;;;13.20;99.90;;;;;;5072005;28;20378;-74
2021/04/19 10:36:45;;;;;;;28.55;20.00;;;13.20;99.90;;;;;;5069103;28;20100;-74
2021/04/19 10:39:14;;;;;;;34.58;23.25;;;13.30;99.90;;;;;;5068422;28;20020;-74
2021/04/19 10:41:40;;;;;;;32.35;23.13;;;13.10;99.90;;;;;;5068208;28;20050;-74
2021/04/19 10:44:08;;;;;;;36.05;23.30;;;13.20;99.90;;;;;;5068807;28;20367;-74
2021/04/19 10:46:38;;;;;;;38.53;24.00;;;13.50;99.90;;;;;;5072508;28;20037;-74
2021/04/19 10:49:05;;;;;;;33.88;24.38;;;13.50;99.90;;;;;;5055346;28;20481;-74
2021/04/19 10:51:36;;;;;;;38.90;27.02;;;13.40;99.90;;;;;;5055116;28;20060;-74
2021/04/19 10:54:05;;;;;;;33.00;23.00;;;13.40;99.90;;;;;;5064188;28;20063;-74
2021/04/19 10:56:31;;;;;;;29.98;21.92;;;13.60;99.90;;;;;;5054308;28;20013;-74
2021/04/19 10:59:00;;;;;;;29.63;21.42;;;13.90;99.90;;;;;;5054366;28;20025;-74
2021/04/19 11:01:29;;;;;;;28.23;20.08;;;14.70;99.90;;;;;;5052764;28;20036;-74
2021/04/19 11:03:57;;;;;;;23.25;18.17;;;15.60;99.90;;;;;;5054040;28;20089;-74
2021/04/19 11:06:22;;;;;;;22.30;17.35;;;15.70;99.90;;;;;;5054025;28;20025;-74
2021/04/19 11:09:03;;;;;;;23.60;17.83;;;16.00;99.90;;;;;;5055085;28;20393;-74
2021/04/19 11:11:40;;;;;;;23.02;16.88;;;15.40;99.90;;;;;;5048660;28;20032;-74
2021/04/19 11:14:24;;;;;;;21.92;16.67;;;15.40;99.90;;;;;;5069009;28;20025;-74
2021/04/19 11:17:00;;;;;;;21.85;16.80;;;15.20;99.90;;;;;;5070088;28;20457;-74
2021/04/19 11:19:44;;;;;;;25.27;17.42;;;14.90;99.90;;;;;;5054243;28;20028;-74
2021/04/19 11:22:20;;;;;;;23.58;16.88;;;14.90;99.90;;;;;;5053658;28;20442;-74
2021/04/19 11:24:46;;;;;;;22.10;17.08;;;14.60;99.90;;;;;;5053661;28;20064;-74
2021/04/19 11:27:12;;;;;;;23.75;17.55;;;14.60;99.90;;;;;;5068536;28;20061;-74
2021/04/19 11:29:40;;;;;;;25.55;17.95;;;14.40;99.90;;;;;;5054328;28;20055;-74
2021/04/19 11:32:07;;;;;;;25.08;17.60;;;14.20;99.90;;;;;;5053517;28;20029;-74
2021/04/19 11:34:36;;;;;;;29.73;18.48;;;13.90;99.90;;;;;;5053625;28;20045;-74
2021/04/19 11:37:02;;;;;;;25.50;18.38;;;13.90;99.90;;;;;;5051464;28;20083;-74
2021/04/19 11:39:35;;;;;;;31.52;18.20;;;13.90;99.90;;;;;;5052488;28;20040;-74
2021/04/19 11:42:01;;;;;;;25.15;17.50;;;13.90;99.90;;;;;;5052114;28;20017;-74
2021/04/19 11:44:45;;;;;;;19.88;15.93;;;13.80;99.90;;;;;;5052093;28;20029;-74
2021/04/19 11:47:11;;;;;;;27.02;16.70;;;13.80;99.90;;;;;;5053979;28;20017;-74
2021/04/19 11:49:36;;;;;;;25.13;17.08;;;13.50;99.90;;;;;;5054566;28;20082;-74
2021/04/19 11:52:03;;;;;;;26.75;17.65;;;13.60;99.90;;;;;;5053432;28;20033;-74
2021/04/19 11:54:29;;;;;;;22.77;17.05;;;13.50;99.90;;;;;;5052448;28;20028;-74
2021/04/19 11:56:54;;;;;;;22.92;17.23;;;13.60;99.90;;;;;;5067445;28;20021;-74
2021/04/19 11:59:20;;;;;;;22.98;16.50;;;13.70;99.90;;;;;;5052436;28;20029;-74
2021/04/19 12:01:45;;;;;;;21.70;16.38;;;13.80;99.90;;;;;;5062456;28;20461;-75
2021/04/19 12:04:12;;;;;;;23.10;15.98;;;14.00;99.90;;;;;;5053764;28;20489;-74
2021/04/19 12:06:38;;;;;;;21.08;15.05;;;14.20;99.90;;;;;;5053879;28;20032;-75
2021/04/19 12:09:04;;;;;;;19.48;14.45;;;14.30;99.90;;;;;;5053565;28;20029;-75
2021/04/19 12:11:30;;;;;;;22.42;16.70;;;14.20;99.90;;;;;;5052325;28;20025;-75
2021/04/19 12:13:59;;;;;;;25.08;15.27;;;14.10;99.90;;;;;;5053290;28;20398;-74
2021/04/19 12:16:26;;;;;;;19.98;15.32;;;14.30;99.90;;;;;;5053932;28;20036;-74
2021/04/19 12:18:51;;;;;;;22.05;15.77;;;14.60;99.90;;;;;;5052635;28;20470;-75
2021/04/19 12:21:17;;;;;;;22.98;15.73;;;14.60;99.90;;;;;;5033258;28;20036;-74
2021/04/19 12:23:42;;;;;;;20.63;15.85;;;15.00;99.90;;;;;;5050230;28;20021;-74
2021/04/19 12:26:08;;;;;;;21.90;16.13;;;15.20;99.90;;;;;;5052645;28;20024;-75
2021/04/19 12:28:34;;;;;;;20.45;15.07;;;15.60;99.90;;;;;;5053004;28;20394;-75
2021/04/19 12:31:00;;;;;;;20.17;15.13;;;15.70;99.90;;;;;;5067631;28;20109;-75
2021/04/19 12:33:26;;;;;;;22.40;15.98;;;15.80;99.90;;;;;;5052653;28;20021;-74
2021/04/19 12:35:52;;;;;;;22.33;16.33;;;15.50;99.90;;;;;;5053437;28;20021;-75
2021/04/19 12:38:18;;;;;;;21.20;15.32;;;15.50;99.90;;;;;;5053870;28;20094;-75
2021/04/19 12:40:44;;;;;;;21.77;15.27;;;15.60;99.90;;;;;;5053189;28;20021;-74
2021/04/19 12:43:11;;;;;;;20.08;15.98;;;15.30;99.90;;;;;;5052655;28;20021;-74
2021/04/19 12:45:37;;;;;;;22.05;15.32;;;15.10;99.90;;;;;;5053278;28;20053;-74
2021/04/19 12:48:06;;;;;;;20.70;15.38;;;15.40;99.90;;;;;;5053227;28;20048;-74
2021/04/19 12:50:32;;;;;;;19.25;15.18;;;16.00;99.90;;;;;;5053691;28;20423;-74
2021/04/19 12:53:00;;;;;;;17.23;13.65;;;16.10;99.90;;;;;;5052682;28;20063;-74